Aérodrome :
LOGIN :

S'inscrire | Disclaimer

   EN    FR    IT 

 










Légende :    VFR   VFR Marginal   IFR   IFR Intensif   IFR Très Intensif
Visi : 
Plafond : 
>= 8 km
>= 3000ft
5 à 8 km
1000 à 3000 ft
1500m à 5 km
500 à 1000 ft
800 à 1500m
200 à 500 ft
< 800m
< 200 ft
Symboles :   Orages  Brouillard  Fortes neiges  Fortes précipitations  Vent > 20 kt
SIGMETs :   Divers  Orages  Givrage  Turbulence  Onde Orograph.  Cendres Volcan.






- Altitude de l'aérodrome : 37 ft


EHVL - Vlieland Heliport

DERNIER METAR :
  • 231531Z AUTO 23018KT 9999 FEW012 OVC028 15/11 Q1014 BLACKBLU

METARs EXPIRÉS :
  • 231525Z AUTO 23018KT 9999 BKN012 BKN018 OVC028 15/12 Q1014 BLACKGRN
  • 231518Z AUTO 23018KT 9999 SCT012 SCT018 OVC027 15/12 Q1014 BLACKGRN
  • 231455Z AUTO 22018KT 9999 FEW014 OVC030 16/12 Q1014 BLACKBLU
  • 231426Z AUTO 22018KT 9999 FEW013 OVC028 15/11 Q1014 BLACKBLU
  • 231425Z AUTO 22019KT 9999 FEW014 SCT016 OVC029 15/11 Q1014 BLACKWHT
  • 231359Z AUTO 23020KT 9999 FEW012 SCT015 OVC028 15/12 Q1014 BLACKWHT
  • 231334Z AUTO 23019KT 9999 SCT011 OVC028 16/12 Q1013 BLACKGRN
  • 231338Z AUTO 23018KT 9999 SCT011 BKN013 OVC026 15/12 Q1013 BLACKGRN
  • 231325Z AUTO 23018KT 9999 SCT011 SCT013 OVC029 16/12 Q1013 BLACKGRN
  • 231304Z AUTO 23018KT 9999 SCT010 OVC025 16/12 Q1013 BLACKGRN
  • 231255Z AUTO 23018KT 9999 SCT011 BKN014 OVC029 16/12 Q1013 BLACKGRN
  • 231226Z AUTO 23018KT 9999 SCT011 BKN014 BKN018 16/12 Q1013 BLACKGRN
  • 231225Z AUTO 23018KT 9999 FEW011 SCT013 OVC028 16/12 Q1013 BLACKGRN
  • 231214Z AUTO 23018KT 9999 FEW011 OVC029 16/12 Q1013 BLACKBLU
  • 231204Z AUTO 23019KT 9999 SCT011 BKN013 BKN017 16/12 Q1013 BLACKGRN
  • 231155Z AUTO 23018KT 9999 FEW011 SCT014 OVC027 17/13 Q1013 BLACKGRN
  • 231142Z AUTO 23018KT 9999 SCT011 BKN013 BKN016 16/12 Q1013 BLACKGRN
  • 231125Z AUTO 22020KT 9999 FEW013 OVC024 16/12 Q1013 BLACKWHT
  • 231103Z AUTO 23020KT 9999 FEW014 SCT017 OVC024 16/12 Q1012 BLACKWHT
  • 231059Z AUTO 23020KT 9999 SCT012 SCT016 OVC024 16/12 Q1012 BLACKGRN

Prévision TAF périmée.



MET'MAP, la Météo Aéronautique d'un coup d'oeil ! - Copyright ORBIFLY Décembre 2007 - Disclaimer

ORBIFLY MET'MAP TEAM :

Programmation & Développement : Alexandra Zaïnal
Sur une idée originale de : Baudouin d'Aumeries
Soutien technique & logistique : Manuel Goepfert
Assistance : Marc-Olivier Méhu




SOURCES & CREDITS :

   NOAA